Time;durP1;ratioP1;P1;durP2;ratioP2;P2;SDS_P1;SDS_P2;PMS_P1;PMS_P2;Temp;Humidity;BMP_temperature;BMP_pressure;BME280_temperature;BME280_humidity;BME280_pressure;Samples;Min_cycle;Max_cycle;Signal;HPM_P1;HPM_P2
2022/08/17 00:00:16;;;;;;;4.68;4.28;;;26.80;60.40;;;;;;4477407;32;20487;-70
2022/08/17 00:03:25;;;;;;;5.32;4.85;;;26.90;60.50;;;;;;4476689;32;20649;-69
2022/08/17 00:05:55;;;;;;;5.15;4.68;;;26.80;60.40;;;;;;4398180;32;20548;-69
2022/08/17 00:08:29;;;;;;;5.10;4.70;;;26.80;60.50;;;;;;4467360;32;20065;-70
2022/08/17 00:10:56;;;;;;;4.63;4.22;;;26.80;60.50;;;;;;4477571;32;20150;-69
2022/08/17 00:13:27;;;;;;;4.95;4.55;;;26.80;60.40;;;;;;4477236;32;20489;-70
2022/08/17 00:15:58;;;;;;;4.90;4.50;;;26.80;60.50;;;;;;4477188;32;20076;-69
2022/08/17 00:18:29;;;;;;;4.43;4.05;;;26.80;60.50;;;;;;4477158;32;20128;-70
2022/08/17 00:20:56;;;;;;;4.75;4.35;;;26.80;60.50;;;;;;4477429;32;20096;-70
2022/08/17 00:23:23;;;;;;;4.75;4.35;;;26.80;60.50;;;;;;4477062;32;20132;-70
2022/08/17 00:25:49;;;;;;;5.07;4.65;;;26.80;60.50;;;;;;4477047;32;20523;-69
2022/08/17 00:28:15;;;;;;;4.97;4.57;;;26.80;60.50;;;;;;4477226;32;20143;-69
2022/08/17 00:30:43;;;;;;;5.35;4.90;;;26.80;60.50;;;;;;4477151;32;20085;-69
2022/08/17 00:33:19;;;;;;;4.78;4.38;;;26.80;60.50;;;;;;4476697;32;20065;-70
2022/08/17 00:35:47;;;;;;;4.78;4.32;;;26.80;60.50;;;;;;4476864;32;20649;-69
2022/08/17 00:38:13;;;;;;;5.10;4.65;;;26.80;60.50;;;;;;4477002;32;20088;-70
2022/08/17 00:40:44;;;;;;;5.20;4.70;;;26.80;60.50;;;;;;4476739;32;20065;-69
2022/08/17 00:43:17;;;;;;;5.65;4.55;;;26.80;60.50;;;;;;4476963;32;20426;-70
2022/08/17 00:45:43;;;;;;;4.55;4.15;;;26.80;60.50;;;;;;4476520;32;20215;-69
2022/08/17 00:48:10;;;;;;;4.90;4.40;;;26.80;60.50;;;;;;4462699;32;20418;-70
2022/08/17 00:50:39;;;;;;;6.05;4.65;;;26.80;60.50;;;;;;4476696;32;20510;-70
2022/08/17 00:53:05;;;;;;;4.50;4.10;;;26.80;60.50;;;;;;4476372;32;20235;-68
2022/08/17 00:55:33;;;;;;;4.82;4.43;;;26.80;60.50;;;;;;4476655;32;20085;-68
2022/08/17 00:58:03;;;;;;;4.60;4.20;;;26.80;60.50;;;;;;4476635;32;20065;-67
2022/08/17 01:00:39;;;;;;;4.75;4.28;;;26.80;60.50;;;;;;4462783;32;20081;-68
2022/08/17 01:03:24;;;;;;;4.72;4.32;;;26.70;60.50;;;;;;4476345;32;20514;-68
2022/08/17 01:05:55;;;;;;;5.05;4.60;;;26.70;60.40;;;;;;4476711;32;20073;-67
2022/08/17 01:08:25;;;;;;;5.10;3.97;;;26.70;60.50;;;;;;4462524;32;20081;-68
2022/08/17 01:10:54;;;;;;;4.25;3.95;;;26.70;60.50;;;;;;4476839;32;20061;-68
2022/08/17 01:13:26;;;;;;;5.03;4.63;;;26.70;60.50;;;;;;4476470;32;20093;-68
2022/08/17 01:15:57;;;;;;;4.60;4.20;;;26.70;60.50;;;;;;4476345;32;20073;-68
2022/08/17 01:18:25;;;;;;;4.72;4.32;;;26.70;60.50;;;;;;4476472;32;20085;-68
2022/08/17 01:20:54;;;;;;;4.22;3.85;;;26.70;60.50;;;;;;4475984;32;20238;-68
2022/08/17 01:23:23;;;;;;;4.40;4.00;;;26.70;60.50;;;;;;4476638;32;20634;-67
2022/08/17 01:25:54;;;;;;;4.38;3.97;;;26.70;60.50;;;;;;4476341;32;20491;-68
2022/08/17 01:28:22;;;;;;;4.80;4.40;;;26.70;60.50;;;;;;4476618;32;20074;-68
2022/08/17 01:30:49;;;;;;;4.55;4.15;;;26.70;60.50;;;;;;4476269;32;20414;-67
2022/08/17 01:33:15;;;;;;;4.60;4.20;;;26.70;60.50;;;;;;4476493;32;20167;-68
2022/08/17 01:35:41;;;;;;;4.65;4.22;;;26.70;60.50;;;;;;4476287;32;20517;-68
2022/08/17 01:38:08;;;;;;;4.70;4.30;;;26.70;60.50;;;;;;4476148;32;20077;-68
2022/08/17 01:40:50;;;;;;;4.30;4.00;;;26.70;60.50;;;;;;4476072;32;20143;-67
2022/08/17 01:43:21;;;;;;;4.30;3.90;;;26.70;60.50;;;;;;4476468;32;20533;-68
2022/08/17 01:45:52;;;;;;;5.00;4.20;;;26.70;60.50;;;;;;4476015;32;20066;-68
2022/08/17 01:48:19;;;;;;;4.28;3.97;;;26.70;60.50;;;;;;4476175;32;20061;-68
2022/08/17 01:50:48;;;;;;;4.55;4.15;;;26.70;60.50;;;;;;4476353;32;20188;-67
2022/08/17 01:53:25;;;;;;;4.45;4.05;;;26.70;60.60;;;;;;4476145;32;20191;-68
2022/08/17 01:55:57;;;;;;;4.45;4.07;;;26.60;60.40;;;;;;4476624;32;20073;-68
2022/08/17 01:58:23;;;;;;;4.30;4.00;;;26.60;60.50;;;;;;4476000;32;20085;-68
2022/08/17 02:00:51;;;;;;;4.13;3.83;;;26.60;60.60;;;;;;4475633;32;20369;-68
2022/08/17 02:03:19;;;;;;;4.63;4.32;;;26.70;60.60;;;;;;4475664;32;20167;-67
2022/08/17 02:05:47;;;;;;;5.07;4.32;;;26.70;60.60;;;;;;4476015;32;20140;-68
2022/08/17 02:08:14;;;;;;;5.00;4.60;;;26.60;60.50;;;;;;4475898;32;20087;-68
2022/08/17 02:10:41;;;;;;;5.05;4.35;;;26.60;60.50;;;;;;4475900;32;20491;-68
2022/08/17 02:13:07;;;;;;;4.22;3.85;;;26.60;60.50;;;;;;4475940;32;20438;-67
2022/08/17 02:15:33;;;;;;;4.13;3.83;;;26.60;60.60;;;;;;4475830;32;20080;-67
2022/08/17 02:18:04;;;;;;;4.50;4.10;;;26.60;60.60;;;;;;4475840;32;20070;-68
2022/08/17 02:20:30;;;;;;;4.40;4.00;;;26.60;60.60;;;;;;4475885;32;20089;-68
2022/08/17 02:22:59;;;;;;;4.45;4.05;;;26.60;60.60;;;;;;4475855;32;20093;-68
2022/08/17 02:25:27;;;;;;;4.25;3.95;;;26.60;60.70;;;;;;4461754;32;20093;-67
2022/08/17 02:27:53;;;;;;;4.35;4.00;;;26.60;60.60;;;;;;4478275;32;20166;-67
2022/08/17 02:30:19;;;;;;;4.43;4.00;;;26.60;60.60;;;;;;4478807;32;20182;-67
2022/08/17 02:32:45;;;;;;;4.10;3.80;;;26.60;60.60;;;;;;4478790;32;20210;-67
2022/08/17 02:35:12;;;;;;;4.10;3.80;;;26.60;60.60;;;;;;4478768;32;20483;-68
2022/08/17 02:37:41;;;;;;;5.50;4.00;;;26.60;60.60;;;;;;4479250;32;20084;-68
2022/08/17 02:40:07;;;;;;;4.28;3.97;;;26.50;60.50;;;;;;4478603;32;20480;-68
2022/08/17 02:42:37;;;;;;;4.07;3.78;;;26.50;60.50;;;;;;4478409;32;20073;-68
2022/08/17 02:45:11;;;;;;;4.88;4.13;;;26.50;60.50;;;;;;4478330;32;20147;-67
2022/08/17 02:47:37;;;;;;;4.40;4.03;;;26.50;60.50;;;;;;4478470;32;20069;-68
2022/08/17 02:50:05;;;;;;;3.90;3.60;;;26.60;60.60;;;;;;4478532;32;20127;-67
2022/08/17 02:52:39;;;;;;;4.00;3.70;;;26.50;60.50;;;;;;4478494;32;20089;-68
2022/08/17 02:55:10;;;;;;;4.80;4.40;;;26.50;60.50;;;;;;4478607;32;20089;-67
2022/08/17 02:57:37;;;;;;;4.30;4.00;;;26.50;60.50;;;;;;4464484;32;20074;-68
2022/08/17 03:00:10;;;;;;;4.28;3.97;;;26.50;60.60;;;;;;4478354;32;20438;-67
2022/08/17 03:02:42;;;;;;;5.25;3.85;;;26.50;61.40;;;;;;4478465;32;20085;-68
2022/08/17 03:05:10;;;;;;;3.83;3.53;;;26.50;60.50;;;;;;4478610;32;20077;-67
2022/08/17 03:07:37;;;;;;;4.20;3.90;;;26.50;60.60;;;;;;4478458;32;20502;-69
2022/08/17 03:10:07;;;;;;;4.38;4.03;;;26.50;60.60;;;;;;4478522;32;20089;-68
2022/08/17 03:12:37;;;;;;;4.38;4.07;;;26.50;60.50;;;;;;4478331;32;20492;-67
2022/08/17 03:15:14;;;;;;;4.00;3.70;;;26.50;60.60;;;;;;4478090;32;20065;-67
2022/08/17 03:17:41;;;;;;;4.22;3.83;;;26.50;60.60;;;;;;4478480;32;20124;-68
2022/08/17 03:20:07;;;;;;;4.00;3.70;;;26.50;60.60;;;;;;4478002;32;20418;-68
2022/08/17 03:22:45;;;;;;;4.05;3.70;;;26.50;60.60;;;;;;4478261;32;20215;-67
2022/08/17 03:25:16;;;;;;;3.75;3.45;;;26.50;60.60;;;;;;4477749;32;20294;-68
2022/08/17 03:27:42;;;;;;;3.97;3.67;;;26.40;60.50;;;;;;4478382;32;20122;-68
2022/08/17 03:30:11;;;;;;;4.30;3.95;;;26.40;60.60;;;;;;4477848;32;20062;-68
2022/08/17 03:32:40;;;;;;;3.90;3.60;;;26.50;60.60;;;;;;4463714;32;20514;-67
2022/08/17 03:35:07;;;;;;;4.07;3.78;;;26.40;60.60;;;;;;4478041;32;20099;-68
2022/08/17 03:37:33;;;;;;;4.22;3.83;;;26.40;60.60;;;;;;4477780;32;20117;-68
2022/08/17 03:39:58;;;;;;;4.00;3.70;;;26.40;60.60;;;;;;4477702;32;20158;-67
2022/08/17 03:42:26;;;;;;;3.75;3.45;;;26.40;60.60;;;;;;4477607;32;20203;-67
2022/08/17 03:44:54;;;;;;;3.90;3.53;;;26.40;60.60;;;;;;4477447;32;20090;-67
2022/08/17 03:58:22;;;;;;;3.47;3.22;;;26.40;60.70;;;;;;4477636;32;20087;-67
2022/08/17 04:00:49;;;;;;;3.83;3.50;;;26.40;60.70;;;;;;4463303;32;20073;-67
2022/08/17 04:03:16;;;;;;;3.80;3.50;;;26.40;60.60;;;;;;4477431;32;20121;-68
2022/08/17 04:05:42;;;;;;;4.30;3.78;;;26.40;60.60;;;;;;4477061;32;20061;-67
2022/08/17 04:08:08;;;;;;;3.75;3.45;;;26.30;60.50;;;;;;4477629;32;20077;-68
2022/08/17 04:10:36;;;;;;;3.75;3.45;;;26.40;60.70;;;;;;4477610;32;20089;-67
2022/08/17 04:13:02;;;;;;;3.85;3.45;;;26.30;60.60;;;;;;4477204;32;20093;-66
2022/08/17 04:15:29;;;;;;;3.85;3.55;;;26.30;60.60;;;;;;4477185;32;20091;-67
2022/08/17 04:17:55;;;;;;;3.75;3.45;;;26.30;60.60;;;;;;4477062;32;20279;-67
2022/08/17 04:20:23;;;;;;;3.38;3.08;;;26.40;60.70;;;;;;4477161;32;20066;-67
2022/08/17 04:23:01;;;;;;;3.60;3.30;;;26.30;60.70;;;;;;4476809;32;20167;-67
2022/08/17 04:25:29;;;;;;;3.63;3.33;;;26.30;60.70;;;;;;4477178;32;20074;-67
2022/08/17 04:27:55;;;;;;;3.63;3.33;;;26.30;60.70;;;;;;4463036;32;20251;-67
2022/08/17 04:30:21;;;;;;;4.00;3.70;;;26.30;60.70;;;;;;4477056;32;20509;-67
2022/08/17 04:32:59;;;;;;;3.78;3.47;;;26.30;60.70;;;;;;4476931;32;20510;-67
2022/08/17 04:35:29;;;;;;;3.72;3.42;;;26.30;60.70;;;;;;4477242;32;20098;-67
2022/08/17 04:37:56;;;;;;;3.92;3.53;;;26.30;60.70;;;;;;4476896;32;20163;-67
2022/08/17 04:43:15;;;;;;;3.53;3.22;;;26.30;60.70;;;;;;4477323;32;20103;-67
2022/08/17 04:45:44;;;;;;;3.73;3.43;;;26.30;60.70;;;;;;4476571;32;20061;-67
2022/08/17 04:48:10;;;;;;;3.40;3.10;;;26.30;60.70;;;;;;4476577;32;20082;-70
2022/08/17 04:50:41;;;;;;;3.60;3.30;;;26.30;60.70;;;;;;4476309;32;20070;-67
2022/08/17 04:53:06;;;;;;;3.70;3.40;;;26.30;61.60;;;;;;4476512;32;20162;-67
2022/08/17 04:55:32;;;;;;;3.58;3.28;;;26.30;60.70;;;;;;4462602;32;20093;-67
2022/08/17 04:57:58;;;;;;;4.28;3.30;;;26.30;60.70;;;;;;4462582;32;20077;-67
2022/08/17 05:00:25;;;;;;;3.00;2.80;;;26.20;60.60;;;;;;4476552;32;20133;-67
2022/08/17 05:02:52;;;;;;;3.70;3.40;;;26.30;60.70;;;;;;4476464;32;20389;-67
2022/08/17 05:05:22;;;;;;;3.45;3.15;;;26.20;60.60;;;;;;4476757;32;20081;-67
2022/08/17 05:07:53;;;;;;;3.20;3.00;;;26.30;60.70;;;;;;4476803;32;20069;-67
2022/08/17 05:10:20;;;;;;;3.42;3.15;;;26.20;60.60;;;;;;4476593;32;20402;-67
2022/08/17 05:12:55;;;;;;;3.50;3.20;;;26.20;60.70;;;;;;4476555;32;20092;-67
2022/08/17 05:15:21;;;;;;;4.28;3.00;;;26.20;60.70;;;;;;4476641;32;20092;-67
2022/08/17 05:17:47;;;;;;;3.60;3.30;;;26.20;60.70;;;;;;4476686;32;20062;-67
2022/08/17 05:20:13;;;;;;;3.35;3.05;;;26.20;60.70;;;;;;4476371;32;20072;-67
2022/08/17 05:22:53;;;;;;;3.72;3.42;;;26.20;60.60;;;;;;4476353;32;20089;-68
2022/08/17 05:25:21;;;;;;;3.63;3.33;;;26.20;60.60;;;;;;4476461;32;20069;-67
2022/08/17 05:27:47;;;;;;;3.10;2.90;;;26.20;60.60;;;;;;4476311;32;20139;-67
2022/08/17 05:30:14;;;;;;;3.60;3.30;;;26.20;60.70;;;;;;4476536;32;20085;-67
2022/08/17 05:33:09;;;;;;;4.03;3.33;;;26.20;60.70;;;;;;4476174;32;20081;-67
2022/08/17 05:35:38;;;;;;;4.97;3.95;;;26.20;60.70;;;;;;4475850;32;20458;-67
2022/08/17 05:38:04;;;;;;;5.25;4.68;;;26.20;60.60;;;;;;4476448;32;20223;-67
2022/08/17 05:40:30;;;;;;;6.28;5.63;;;26.20;60.50;;;;;;4476318;32;20088;-67
2022/08/17 05:43:13;;;;;;;7.72;6.97;;;26.20;60.40;;;;;;4476226;32;20074;-67
2022/08/17 05:45:55;;;;;;;8.70;6.93;;;26.20;60.30;;;;;;4475517;32;20399;-68
2022/08/17 05:48:21;;;;;;;9.82;8.13;;;26.20;60.40;;;;;;4476159;32;20410;-67
2022/08/17 05:50:56;;;;;;;13.52;8.20;;;26.10;60.40;;;;;;4476020;32;20231;-67
2022/08/17 05:53:31;;;;;;;9.95;8.95;;;26.10;60.50;;;;;;4475952;32;20215;-67
2022/08/17 05:56:10;;;;;;;10.18;9.00;;;26.10;60.60;;;;;;4476374;32;20275;-67
2022/08/17 05:59:07;;;;;;;10.45;9.35;;;26.10;60.70;;;;;;4476347;32;20147;-67
2022/08/17 06:01:41;;;;;;;10.65;9.43;;;26.10;60.80;;;;;;4478407;32;20442;-67
2022/08/17 06:04:19;;;;;;;12.05;8.88;;;26.00;60.90;;;;;;4479370;32;20223;-67
2022/08/17 06:06:50;;;;;;;12.00;9.82;;;26.10;61.00;;;;;;4465088;32;20093;-67
2022/08/17 06:09:27;;;;;;;13.15;9.75;;;26.10;61.20;;;;;;4479265;32;20384;-66
2022/08/17 06:12:28;;;;;;;14.02;11.95;;;26.00;61.30;;;;;;4479453;32;20085;-66
2022/08/17 06:15:18;;;;;;;17.38;12.05;;;26.00;61.60;;;;;;4464775;32;20093;-66
2022/08/17 06:17:44;;;;;;;18.60;13.20;;;25.90;61.80;;;;;;4479201;32;20164;-67
2022/08/17 06:20:14;;;;;;;16.95;12.27;;;25.90;62.00;;;;;;4479006;32;20159;-68
2022/08/17 06:22:48;;;;;;;16.58;14.30;;;25.90;62.30;;;;;;4478925;32;20121;-67
2022/08/17 06:25:21;;;;;;;17.42;13.57;;;25.90;62.40;;;;;;4479348;32;20069;-67
2022/08/17 06:27:59;;;;;;;16.85;13.10;;;25.80;62.50;;;;;;4479339;32;20125;-67
2022/08/17 06:30:28;;;;;;;13.98;12.43;;;25.80;62.60;;;;;;4478906;32;20579;-67
2022/08/17 06:33:01;;;;;;;18.45;14.35;;;25.80;62.70;;;;;;4478771;32;20081;-67
2022/08/17 06:35:48;;;;;;;16.75;12.98;;;25.90;62.90;;;;;;4478589;32;20081;-67
2022/08/17 06:38:19;;;;;;;17.58;14.15;;;25.80;62.90;;;;;;4478877;32;20214;-67
2022/08/17 06:41:19;;;;;;;17.33;13.25;;;25.80;63.00;;;;;;4478627;32;20121;-67
2022/08/17 06:44:14;;;;;;;17.48;14.05;;;25.80;63.20;;;;;;4479078;32;20125;-67
2022/08/17 06:46:47;;;;;;;19.63;15.05;;;25.80;63.30;;;;;;4476301;32;20227;-67
2022/08/17 06:49:32;;;;;;;16.60;14.07;;;25.80;63.30;;;;;;4478770;32;20507;-67
2022/08/17 06:52:17;;;;;;;15.43;13.25;;;25.80;63.70;;;;;;4478865;32;20207;-68
2022/08/17 06:55:00;;;;;;;16.77;13.52;;;25.80;63.70;;;;;;4478338;32;20073;-67
2022/08/17 06:57:35;;;;;;;18.77;15.38;;;25.80;63.90;;;;;;4478261;32;20081;-67
2022/08/17 07:00:15;;;;;;;21.88;15.98;;;25.80;63.90;;;;;;4478468;32;20499;-67
2022/08/17 07:03:08;;;;;;;17.45;14.30;;;25.80;64.20;;;;;;4478873;32;20092;-67
2022/08/17 07:05:43;;;;;;;17.73;14.23;;;25.70;64.30;;;;;;4464295;32;20503;-66
2022/08/17 07:08:23;;;;;;;17.90;14.45;;;25.70;65.20;;;;;;4478615;32;20084;-67
2022/08/17 07:10:54;;;;;;;18.52;14.27;;;25.70;64.40;;;;;;4478450;32;20184;-67
2022/08/17 07:13:56;;;;;;;17.40;15.38;;;25.70;64.60;;;;;;4477263;32;20081;-67
2022/08/17 07:16:38;;;;;;;20.20;15.70;;;25.70;64.80;;;;;;4467690;32;20097;-67
2022/08/17 07:19:06;;;;;;;19.13;14.70;;;25.70;65.00;;;;;;4478208;32;20077;-67
2022/08/17 07:21:48;;;;;;;20.63;14.88;;;25.70;65.10;;;;;;4477873;32;20580;-70
2022/08/17 07:24:50;;;;;;;21.55;15.50;;;25.70;65.30;;;;;;4477857;32;20582;-67
2022/08/17 07:27:20;;;;;;;17.55;15.68;;;25.70;65.50;;;;;;4460532;32;20117;-67
2022/08/17 07:29:57;;;;;;;25.75;16.55;;;25.70;65.40;;;;;;4477646;32;20132;-67
2022/08/17 07:32:33;;;;;;;19.77;15.88;;;25.70;65.60;;;;;;4477797;32;20277;-67
2022/08/17 07:34:59;;;;;;;22.23;16.02;;;25.70;65.70;;;;;;4478043;32;20088;-68
2022/08/17 07:37:24;;;;;;;21.88;16.10;;;25.70;65.70;;;;;;4477782;32;20069;-67
2022/08/17 07:39:50;;;;;;;18.35;15.10;;;25.70;65.80;;;;;;4477959;32;20061;-67
2022/08/17 07:42:17;;;;;;;17.25;15.45;;;25.70;65.80;;;;;;4477988;32;20088;-68
2022/08/17 07:48:17;;;;;;;21.90;16.90;;;25.70;65.90;;;;;;4477301;32;20093;-68
2022/08/17 07:50:34;;;;;;;19.08;17.02;;;25.70;66.10;;;;;;4478025;32;20215;-67
2022/08/17 07:53:16;;;;;;;20.70;16.58;;;25.70;66.20;;;;;;4477608;32;20065;-67
2022/08/17 07:55:44;;;;;;;22.75;16.90;;;25.70;66.00;;;;;;4477634;32;20081;-67
2022/08/17 07:58:19;;;;;;;19.73;16.15;;;25.70;66.30;;;;;;4477519;32;20526;-67
2022/08/17 08:01:00;;;;;;;19.25;16.58;;;25.70;66.40;;;;;;4477670;32;20219;-67
2022/08/17 08:03:30;;;;;;;18.80;16.70;;;25.70;66.40;;;;;;4477778;32;20081;-67
2022/08/17 08:06:01;;;;;;;20.00;16.63;;;25.70;66.60;;;;;;4477481;32;20066;-67
2022/08/17 08:08:33;;;;;;;19.88;16.98;;;25.70;66.60;;;;;;4477560;32;20199;-67
2022/08/17 08:11:07;;;;;;;21.02;16.73;;;25.70;66.70;;;;;;4477383;32;20498;-67
2022/08/17 08:13:39;;;;;;;19.65;17.58;;;25.70;66.80;;;;;;4477062;32;20058;-71
2022/08/17 08:16:27;;;;;;;21.25;16.90;;;25.70;66.80;;;;;;4477270;32;20499;-67
2022/08/17 08:18:56;;;;;;;19.80;17.67;;;25.70;67.60;;;;;;4477543;32;20078;-67
2022/08/17 08:21:57;;;;;;;18.67;16.67;;;25.70;66.70;;;;;;4477588;32;20508;-67
2022/08/17 08:24:27;;;;;;;18.17;16.20;;;25.70;66.60;;;;;;4476723;32;20077;-66
2022/08/17 08:26:59;;;;;;;20.83;17.83;;;25.70;66.60;;;;;;4477324;32;20085;-67
2022/08/17 08:29:54;;;;;;;18.38;16.40;;;25.70;66.60;;;;;;4476867;32;20403;-67
2022/08/17 08:32:47;;;;;;;21.23;15.90;;;25.70;66.40;;;;;;4476954;32;20154;-67
2022/08/17 08:35:53;;;;;;;19.42;15.25;;;25.70;66.40;;;;;;4477320;32;20470;-67
2022/08/17 08:39:07;;;;;;;19.02;16.63;;;25.70;66.40;;;;;;4476584;32;20234;-67
2022/08/17 08:41:43;;;;;;;19.23;16.00;;;25.70;66.40;;;;;;4470437;32;20104;-66
2022/08/17 08:44:41;;;;;;;18.27;16.48;;;25.70;66.50;;;;;;4571181;31;20449;-66
2022/08/17 08:47:29;;;;;;;19.33;16.85;;;25.70;66.70;;;;;;4568938;31;20083;-66
2022/08/17 08:50:21;;;;;;;18.52;15.95;;;25.80;66.90;;;;;;4568860;31;20072;-66
2022/08/17 08:52:50;;;;;;;17.95;15.98;;;25.70;66.80;;;;;;4567210;31;20087;-66
2022/08/17 08:55:33;;;;;;;20.38;15.40;;;25.70;66.80;;;;;;4568663;31;20430;-66
2022/08/17 08:58:06;;;;;;;16.40;14.73;;;25.70;66.70;;;;;;4552459;31;20497;-66
2022/08/17 09:00:37;;;;;;;19.98;14.35;;;25.70;66.80;;;;;;4552560;31;20064;-66
2022/08/17 09:03:35;;;;;;;16.33;14.07;;;25.70;66.70;;;;;;4566503;31;20086;-66
2022/08/17 09:06:08;;;;;;;14.55;13.10;;;25.70;66.70;;;;;;4523936;31;20091;-66
2022/08/17 09:08:57;;;;;;;18.35;14.05;;;25.70;66.60;;;;;;4556908;31;20102;-66
2022/08/17 09:11:26;;;;;;;17.05;13.30;;;25.70;66.40;;;;;;4552464;31;20160;-66
2022/08/17 09:14:03;;;;;;;16.20;13.40;;;25.70;66.40;;;;;;4553017;31;20079;-66
2022/08/17 09:17:04;;;;;;;17.42;13.77;;;25.70;66.20;;;;;;4553919;31;20202;-66
2022/08/17 09:19:34;;;;;;;17.67;13.70;;;25.60;66.10;;;;;;4553161;31;20430;-66
2022/08/17 09:22:18;;;;;;;16.63;13.10;;;25.60;66.20;;;;;;4560124;31;20138;-66
2022/08/17 09:25:03;;;;;;;16.10;13.00;;;25.60;66.10;;;;;;4557446;31;20505;-66
2022/08/17 09:27:46;;;;;;;16.88;13.68;;;25.60;66.00;;;;;;4560082;31;20394;-64
2022/08/17 09:30:13;;;;;;;18.08;13.70;;;25.60;66.10;;;;;;4561781;31;20317;-67
2022/08/17 09:32:43;;;;;;;19.60;12.88;;;25.60;66.10;;;;;;4558635;31;20082;-70
2022/08/17 09:35:18;;;;;;;19.23;13.23;;;25.60;66.10;;;;;;4544104;31;20505;-66
2022/08/17 09:37:50;;;;;;;16.08;12.25;;;25.60;66.00;;;;;;4558754;31;20753;-67
2022/08/17 09:40:36;;;;;;;15.45;11.82;;;25.60;66.00;;;;;;4556466;31;20091;-66
2022/08/17 09:43:25;;;;;;;17.45;12.82;;;25.60;66.00;;;;;;4562372;31;20397;-65
2022/08/17 09:46:07;;;;;;;15.45;11.75;;;25.60;66.00;;;;;;4558660;31;20080;-66
2022/08/17 09:48:56;;;;;;;17.80;12.57;;;25.60;66.10;;;;;;4564768;31;20067;-73
2022/08/17 09:51:34;;;;;;;15.57;13.00;;;25.60;66.10;;;;;;4556944;31;20595;-66
2022/08/17 09:54:02;;;;;;;19.90;14.38;;;25.60;67.10;;;;;;4558251;31;20190;-66
2022/08/17 09:57:01;;;;;;;20.55;16.30;;;25.60;66.10;;;;;;4550461;31;20064;-76
2022/08/17 09:59:27;;;;;;;20.38;15.70;;;25.60;66.10;;;;;;4521041;31;20417;-66
2022/08/17 10:02:08;;;;;;;20.27;14.48;;;25.60;66.20;;;;;;4547607;31;20507;-66
2022/08/17 10:04:40;;;;;;;24.67;15.70;;;25.70;66.20;;;;;;4541186;31;20565;-67
2022/08/17 10:07:43;;;;;;;19.92;14.13;;;25.70;66.10;;;;;;4550006;31;20168;-66
2022/08/17 10:10:23;;;;;;;14.82;13.27;;;25.70;66.00;;;;;;4546459;31;20060;-66
2022/08/17 10:12:55;;;;;;;17.40;13.18;;;25.70;65.90;;;;;;4529875;31;20087;-68
2022/08/17 10:15:41;;;;;;;16.42;12.85;;;25.70;65.90;;;;;;4538631;31;20092;-66
2022/08/17 10:18:26;;;;;;;12.90;11.43;;;25.70;65.80;;;;;;4538251;31;20064;-67
2022/08/17 10:27:13;;;;;;;15.53;10.10;;;25.70;65.70;;;;;;4539637;31;20132;-67
2022/08/17 10:29:58;;;;;;;13.23;9.70;;;25.70;65.70;;;;;;4540081;31;20216;-67
2022/08/17 10:32:30;;;;;;;14.07;9.68;;;25.70;65.60;;;;;;4539829;31;20076;-67
2022/08/17 10:35:25;;;;;;;14.35;8.95;;;25.60;65.60;;;;;;4539966;31;20103;-67
2022/08/17 10:38:28;;;;;;;13.02;9.85;;;25.70;65.60;;;;;;4504011;31;20079;-67
2022/08/17 10:41:01;;;;;;;15.85;9.10;;;25.60;65.50;;;;;;4538680;31;20076;-67
2022/08/17 10:43:46;;;;;;;11.90;8.18;;;25.60;65.50;;;;;;4539464;31;20079;-66
2022/08/17 10:46:32;;;;;;;13.10;8.38;;;25.60;65.30;;;;;;4538722;31;20076;-67
2022/08/17 10:49:16;;;;;;;10.48;7.63;;;25.60;65.40;;;;;;4539781;31;20217;-66
2022/08/17 10:51:53;;;;;;;;;;;25.60;65.20;;;;;;4540193;31;20424;-67
2022/08/17 10:54:27;;;;;;;16.15;8.93;;;25.60;65.10;;;;;;4539888;31;20455;-67
2022/08/17 10:56:55;;;;;;;17.02;8.45;;;25.60;65.30;;;;;;4539484;31;20092;-67
2022/08/17 10:59:36;;;;;;;12.15;8.98;;;25.60;65.30;;;;;;4539374;31;20170;-67
2022/08/17 11:02:09;;;;;;;10.60;8.32;;;25.60;65.10;;;;;;4539052;31;20091;-67
2022/08/17 11:05:07;;;;;;;12.07;8.88;;;25.60;65.20;;;;;;4524853;31;20237;-67
2022/08/17 11:08:04;;;;;;;14.60;9.60;;;25.60;66.10;;;;;;4522238;31;20180;-67
2022/08/17 11:10:51;;;;;;;11.55;9.45;;;25.60;65.30;;;;;;4539448;31;20401;-67
2022/08/17 11:13:48;;;;;;;13.13;9.18;;;25.60;65.30;;;;;;4538185;31;20583;-66
2022/08/17 11:16:39;;;;;;;16.98;9.80;;;25.60;65.40;;;;;;4537892;31;20198;-67
2022/08/17 11:19:44;;;;;;;12.55;8.48;;;25.60;65.40;;;;;;4524608;31;20305;-66
2022/08/17 11:22:15;;;;;;;;;;;25.60;65.40;;;;;;4468373;31;20086;-67
2022/08/17 11:24:47;;;;;;;14.35;9.48;;;25.60;65.40;;;;;;4538948;31;20624;-71
2022/08/17 11:27:12;;;;;;;14.73;9.15;;;25.60;65.50;;;;;;4520664;31;20068;-72
2022/08/17 11:30:06;;;;;;;12.13;8.30;;;25.60;65.50;;;;;;4523189;31;20525;-67
2022/08/17 11:32:43;;;;;;;12.13;9.07;;;25.60;65.40;;;;;;4534913;31;20164;-66
2022/08/17 11:35:21;;;;;;;10.73;7.68;;;25.60;65.30;;;;;;4530013;31;20160;-66
2022/08/17 11:38:01;;;;;;;14.50;8.10;;;25.60;65.20;;;;;;4523591;31;20112;-67
2022/08/17 11:40:45;;;;;;;11.00;7.25;;;25.50;65.20;;;;;;4525510;31;20082;-66
2022/08/17 11:43:44;;;;;;;12.82;7.13;;;25.60;65.30;;;;;;4532900;31;20391;-68
2022/08/17 11:46:19;;;;;;;13.98;7.05;;;25.50;65.10;;;;;;4536679;31;20182;-70
2022/08/17 11:51:55;;;;;;;8.48;6.68;;;25.60;64.90;;;;;;4533220;31;20630;-66
2022/08/17 11:54:30;;;;;;;10.23;7.45;;;25.60;64.60;;;;;;4527670;31;20609;-66
2022/08/17 11:56:59;;;;;;;9.75;6.50;;;25.60;64.50;;;;;;4534177;31;20088;-67
2022/08/17 11:59:44;;;;;;;9.32;6.97;;;25.60;64.50;;;;;;4538828;31;20217;-67
2022/08/17 12:02:26;;;;;;;10.32;6.13;;;25.60;64.40;;;;;;4539292;31;20374;-75
2022/08/17 12:05:13;;;;;;;8.98;6.25;;;25.60;64.30;;;;;;4539034;31;20076;-67
2022/08/17 12:07:50;;;;;;;8.10;5.20;;;25.60;65.10;;;;;;4527024;31;20094;-67
2022/08/17 12:10:30;;;;;;;12.57;5.95;;;25.60;64.30;;;;;;4528227;31;20409;-67
2022/08/17 12:12:58;;;;;;;7.28;5.93;;;25.70;64.40;;;;;;4534965;31;20159;-68
2022/08/17 12:15:31;;;;;;;9.23;5.55;;;25.70;64.30;;;;;;4524570;31;20642;-67
2022/08/17 12:17:56;;;;;;;8.25;5.40;;;25.70;64.30;;;;;;4523585;31;20600;-68
2022/08/17 12:20:35;;;;;;;8.35;5.50;;;25.70;64.20;;;;;;4538063;31;20064;-67
2022/08/17 12:23:26;;;;;;;10.43;5.38;;;25.70;64.20;;;;;;4533998;31;20079;-67
2022/08/17 12:26:08;;;;;;;9.68;4.88;;;25.80;64.30;;;;;;4535236;31;20088;-67
2022/08/17 12:28:37;;;;;;;7.78;5.15;;;25.80;64.30;;;;;;4524928;31;20223;-67
2022/08/17 12:31:16;;;;;;;7.60;5.50;;;25.80;64.30;;;;;;4529490;31;20068;-67
2022/08/17 12:33:44;;;;;;;12.48;5.20;;;25.80;64.30;;;;;;4524311;31;20096;-67
2022/08/17 12:36:14;;;;;;;7.97;5.53;;;25.80;64.20;;;;;;4523265;31;20084;-68
2022/08/17 12:38:49;;;;;;;8.63;5.03;;;25.90;64.20;;;;;;4530475;31;20528;-67
2022/08/17 12:41:37;;;;;;;7.22;4.63;;;25.90;64.20;;;;;;4532537;31;20509;-67
2022/08/17 12:44:12;;;;;;;7.13;4.85;;;25.90;64.20;;;;;;4538181;31;20079;-67
2022/08/17 12:46:50;;;;;;;8.02;4.82;;;25.90;64.30;;;;;;4532797;31;20548;-66
2022/08/17 12:49:25;;;;;;;9.65;5.13;;;25.90;64.30;;;;;;4535564;31;20398;-67
2022/08/17 12:52:15;;;;;;;8.07;5.85;;;25.90;64.30;;;;;;4538088;31;20159;-68
2022/08/17 12:54:58;;;;;;;8.68;5.32;;;25.90;64.40;;;;;;4532520;31;20083;-67
2022/08/17 12:57:32;;;;;;;8.93;5.73;;;25.90;64.30;;;;;;4522829;31;20068;-68
2022/08/17 13:00:15;;;;;;;11.02;5.30;;;25.90;64.40;;;;;;4523788;31;20317;-69
2022/08/17 13:02:57;;;;;;;10.63;5.90;;;25.90;64.30;;;;;;4530278;31;20507;-68
2022/08/17 13:05:30;;;;;;;8.25;5.10;;;25.90;64.20;;;;;;4523379;31;20087;-68
2022/08/17 13:07:58;;;;;;;8.07;4.95;;;25.90;64.20;;;;;;4525192;31;20084;-67
2022/08/17 13:10:34;;;;;;;10.38;5.53;;;25.90;64.10;;;;;;4524860;31;20130;-68
2022/08/17 13:13:05;;;;;;;9.63;5.00;;;25.90;64.00;;;;;;4536246;31;20084;-68
2022/08/17 13:15:42;;;;;;;7.88;5.10;;;25.90;63.90;;;;;;4529009;31;20618;-65
2022/08/17 13:18:39;;;;;;;6.10;5.10;;;25.90;63.80;;;;;;4538864;31;20124;-67
2022/08/17 13:21:26;;;;;;;5.60;4.70;;;25.90;63.90;;;;;;4538978;31;20292;-66
2022/08/17 13:24:06;;;;;;;10.63;5.13;;;25.90;64.00;;;;;;4516425;31;20168;-66
2022/08/17 13:26:42;;;;;;;7.93;5.18;;;25.90;63.90;;;;;;4538828;31;20134;-65
2022/08/17 13:29:27;;;;;;;9.82;5.35;;;25.90;63.90;;;;;;4536686;31;20262;-68
2022/08/17 13:32:07;;;;;;;9.50;5.18;;;25.90;63.80;;;;;;4531824;31;20092;-67
2022/08/17 13:34:47;;;;;;;9.43;5.60;;;25.90;63.80;;;;;;4527071;31;20087;-67
2022/08/17 13:37:24;;;;;;;10.05;5.35;;;25.90;63.70;;;;;;4528234;31;20492;-67
2022/08/17 13:39:54;;;;;;;8.43;5.53;;;25.90;63.80;;;;;;4533169;31;20366;-67
2022/08/17 13:42:39;;;;;;;7.75;5.10;;;25.90;63.80;;;;;;4528275;31;20497;-66
2022/08/17 13:45:27;;;;;;;9.70;5.10;;;25.90;63.80;;;;;;4530500;31;20157;-66
2022/08/17 13:48:11;;;;;;;9.07;5.30;;;25.90;63.70;;;;;;4534166;31;20131;-67